Time;durP1;ratioP1;P1;durP2;ratioP2;P2;SDS_P1;SDS_P2;PMS_P1;PMS_P2;Temp;Humidity;BMP_temperature;BMP_pressure;BME280_temperature;BME280_humidity;BME280_pressure;Samples;Min_cycle;Max_cycle;Signal;HPM_P1;HPM_P2
2022/11/16 00:01:25;;;;;;;11.93;8.15;;;10.30;99.90;;;;;;5087135;28;20205;-83
2022/11/16 00:03:55;;;;;;;14.68;8.00;;;10.50;99.90;;;;;;5082442;28;20064;-83
2022/11/16 00:06:22;;;;;;;11.23;8.60;;;10.40;99.90;;;;;;5045758;28;20040;-78
2022/11/16 00:11:53;;;;;;;12.52;8.60;;;10.50;99.90;;;;;;5087008;28;20596;-80
2022/11/16 00:14:20;;;;;;;12.82;8.40;;;10.40;99.90;;;;;;5112034;27;20043;-84
2022/11/16 00:16:46;;;;;;;11.77;8.50;;;10.40;99.90;;;;;;5072206;28;22070;-81
2022/11/16 00:19:13;;;;;;;11.25;8.80;;;10.40;99.90;;;;;;5088178;28;20036;-82
2022/11/16 00:21:39;;;;;;;10.93;8.90;;;10.40;99.90;;;;;;5068474;28;20419;-81
2022/11/16 00:24:05;;;;;;;15.25;9.75;;;10.50;99.90;;;;;;5092723;28;20032;-78
2022/11/16 00:26:31;;;;;;;12.32;9.43;;;10.30;99.90;;;;;;5083471;28;20043;-78
2022/11/16 00:28:57;;;;;;;15.20;10.30;;;10.40;99.90;;;;;;5094087;28;20032;-79
2022/11/16 00:31:23;;;;;;;12.63;9.52;;;10.50;99.90;;;;;;5094878;28;20157;-80
2022/11/16 00:33:50;;;;;;;13.60;10.93;;;10.30;99.90;;;;;;5074853;28;20054;-78
2022/11/16 00:36:28;;;;;;;20.67;10.18;;;10.40;99.90;;;;;;5076267;28;20518;-79
2022/11/16 00:38:54;;;;;;;14.23;10.50;;;10.40;99.90;;;;;;5091272;28;20051;-78
2022/11/16 00:41:20;;;;;;;17.13;10.73;;;10.40;99.90;;;;;;5080567;28;20044;-78
2022/11/16 00:43:46;;;;;;;14.90;11.20;;;10.30;99.90;;;;;;5093550;28;20055;-81
2022/11/16 00:46:11;;;;;;;15.90;11.65;;;10.30;99.90;;;;;;5093117;28;20032;-79
2022/11/16 00:48:37;;;;;;;17.23;11.80;;;10.50;99.90;;;;;;5091785;28;20057;-79
2022/11/16 00:51:03;;;;;;;17.10;11.80;;;10.40;99.90;;;;;;5078361;28;20229;-80
2022/11/16 00:54:07;;;;;;;18.30;11.70;;;10.30;99.90;;;;;;5080880;28;20126;-79
2022/11/16 00:56:33;;;;;;;17.15;11.98;;;10.40;99.90;;;;;;5071635;28;20493;-79
2022/11/16 00:58:58;;;;;;;17.80;11.88;;;10.30;99.90;;;;;;5065477;28;20498;-85
2022/11/16 01:01:24;;;;;;;16.65;12.45;;;10.30;99.90;;;;;;5073157;28;20122;-78
2022/11/16 01:03:50;;;;;;;15.82;12.63;;;10.30;99.90;;;;;;5090465;28;20040;-80
2022/11/16 01:06:16;;;;;;;21.35;12.93;;;10.40;99.90;;;;;;5083469;28;20063;-83
2022/11/16 01:08:43;;;;;;;17.60;12.98;;;10.30;99.90;;;;;;5068588;28;20036;-82
2022/11/16 01:13:56;;;;;;;17.55;13.27;;;10.40;99.90;;;;;;5088726;28;20048;-82
2022/11/16 01:16:22;;;;;;;19.33;13.65;;;10.40;99.90;;;;;;5087281;28;20036;-82
2022/11/16 01:18:50;;;;;;;21.05;13.70;;;10.40;99.90;;;;;;5061679;28;20095;-81
2022/11/16 01:21:16;;;;;;;17.98;13.15;;;10.40;99.90;;;;;;5087840;28;20047;-84
2022/11/16 01:23:42;;;;;;;18.92;13.20;;;10.40;99.90;;;;;;5067750;28;20055;-84
2022/11/16 01:26:08;;;;;;;20.50;12.57;;;10.40;99.90;;;;;;5070318;28;20497;-83
2022/11/16 01:28:34;;;;;;;17.92;12.18;;;10.40;99.90;;;;;;5081050;28;20036;-85
2022/11/16 01:30:59;;;;;;;16.85;11.95;;;10.30;99.90;;;;;;5071118;28;20062;-87
2022/11/16 01:33:25;;;;;;;18.83;13.07;;;10.30;99.90;;;;;;5083655;28;20039;-81
2022/11/16 01:35:51;;;;;;;20.30;13.02;;;10.40;99.90;;;;;;5103291;28;20040;-83
2022/11/16 01:38:17;;;;;;;17.50;12.30;;;10.30;99.90;;;;;;5067497;28;20052;-79
2022/11/16 01:40:42;;;;;;;15.18;12.07;;;10.40;99.90;;;;;;5097347;28;20043;-79
2022/11/16 01:43:16;;;;;;;18.15;12.35;;;10.50;99.90;;;;;;5083204;28;20035;-81
2022/11/16 01:45:45;;;;;;;16.23;11.65;;;10.40;99.90;;;;;;5079192;28;20055;-81
2022/11/16 01:48:14;;;;;;;15.43;11.85;;;10.50;99.90;;;;;;5084196;28;20044;-82
2022/11/16 01:50:41;;;;;;;18.35;12.02;;;10.50;99.90;;;;;;5068524;28;20534;-85
2022/11/16 01:53:09;;;;;;;19.02;11.88;;;10.50;99.90;;;;;;5085636;28;20458;-79
2022/11/16 01:55:37;;;;;;;21.00;11.43;;;10.40;99.90;;;;;;5083051;28;20123;-80
2022/11/16 01:58:03;;;;;;;17.65;11.85;;;10.50;99.90;;;;;;5067322;28;20051;-79
2022/11/16 02:00:29;;;;;;;16.00;10.95;;;10.40;99.90;;;;;;5098803;28;20024;-79
2022/11/16 02:02:55;;;;;;;16.45;11.63;;;10.40;99.90;;;;;;5086908;28;20051;-78
2022/11/16 02:05:29;;;;;;;19.33;11.95;;;10.50;99.90;;;;;;5088766;28;20115;-79
2022/11/16 02:11:21;;;;;;;16.20;11.88;;;10.50;99.90;;;;;;5085708;28;20130;-82
2022/11/16 02:14:10;;;;;;;15.70;11.02;;;10.40;99.90;;;;;;5075141;28;20046;-81
2022/11/16 02:16:50;;;;;;;15.68;11.13;;;10.40;99.90;;;;;;5075615;28;20047;-81
2022/11/16 02:19:54;;;;;;;15.52;11.00;;;10.50;99.90;;;;;;5094114;28;20045;-78
2022/11/16 02:22:28;;;;;;;15.20;11.02;;;10.50;99.90;;;;;;5087778;28;20048;-84
2022/11/16 02:25:06;;;;;;;21.73;11.13;;;10.40;99.90;;;;;;5080716;28;20040;-82
2022/11/16 02:27:35;;;;;;;15.23;11.13;;;10.50;99.90;;;;;;5102659;28;20079;-80
2022/11/16 02:30:02;;;;;;;16.00;10.85;;;10.50;99.90;;;;;;5074842;28;20032;-79
2022/11/16 02:32:35;;;;;;;15.55;10.23;;;10.50;99.90;;;;;;5103649;28;20079;-80
2022/11/16 02:35:06;;;;;;;21.70;10.43;;;10.50;99.90;;;;;;5076594;28;20052;-79
2022/11/16 02:37:36;;;;;;;16.55;10.73;;;10.60;99.90;;;;;;5086835;28;20427;-82
2022/11/16 02:40:09;;;;;;;16.77;9.50;;;10.60;99.90;;;;;;5085859;28;20451;-81
2022/11/16 02:42:47;;;;;;;14.13;9.98;;;10.60;99.90;;;;;;5096418;27;20040;-80
2022/11/16 02:45:18;;;;;;;13.20;9.40;;;10.60;99.90;;;;;;5070248;28;20028;-78
2022/11/16 02:47:45;;;;;;;14.95;10.63;;;10.60;99.90;;;;;;5080322;28;20067;-79
2022/11/16 02:50:17;;;;;;;16.63;10.23;;;10.50;99.90;;;;;;5082540;28;20145;-84
2022/11/16 02:52:44;;;;;;;18.77;10.13;;;10.60;99.90;;;;;;5082602;28;20036;-81
2022/11/16 02:55:10;;;;;;;14.85;10.40;;;10.50;99.90;;;;;;5086980;28;20351;-81
2022/11/16 02:57:44;;;;;;;16.25;10.23;;;10.50;99.90;;;;;;5089367;28;20128;-80
2022/11/16 03:00:18;;;;;;;17.33;10.68;;;10.50;99.90;;;;;;5098587;27;20062;-81
2022/11/16 03:03:02;;;;;;;12.80;9.77;;;10.50;99.90;;;;;;5085309;28;20123;-86
2022/11/16 03:05:40;;;;;;;15.07;10.18;;;10.50;99.90;;;;;;5097896;27;20032;-81
2022/11/16 03:08:20;;;;;;;16.77;10.18;;;10.50;99.90;;;;;;5067393;28;21639;-84
2022/11/16 03:13:53;;;;;;;15.30;10.05;;;10.50;99.90;;;;;;5066126;28;20566;-82
2022/11/16 03:16:26;;;;;;;16.65;9.70;;;10.50;99.90;;;;;;5067781;28;20225;-81
2022/11/16 03:18:54;;;;;;;14.63;10.13;;;10.50;99.90;;;;;;5082017;28;20347;-82
2022/11/16 03:21:40;;;;;;;14.98;10.13;;;10.60;99.90;;;;;;5097424;27;20047;-82
2022/11/16 03:24:07;;;;;;;14.27;10.05;;;10.60;99.90;;;;;;5076331;28;20218;-81
2022/11/16 03:26:46;;;;;;;16.27;9.85;;;10.50;99.90;;;;;;5071836;28;20048;-81
2022/11/16 03:29:22;;;;;;;15.10;10.00;;;10.60;99.90;;;;;;5065807;28;20062;-81
2022/11/16 03:31:53;;;;;;;15.77;10.05;;;10.60;99.90;;;;;;5062224;28;20052;-81
2022/11/16 03:34:24;;;;;;;16.83;10.32;;;10.50;99.90;;;;;;5062256;28;20043;-83
2022/11/16 03:36:52;;;;;;;17.60;10.13;;;10.60;99.90;;;;;;5101229;27;20186;-80
2022/11/16 03:39:24;;;;;;;17.77;10.73;;;10.60;99.90;;;;;;5048909;28;20055;-83
2022/11/16 03:41:50;;;;;;;15.38;10.20;;;10.60;99.90;;;;;;5050208;28;20054;-82
2022/11/16 03:44:18;;;;;;;18.88;10.10;;;10.60;99.90;;;;;;5098286;27;20363;-81
2022/11/16 03:46:45;;;;;;;16.23;10.23;;;10.40;99.90;;;;;;5065430;28;20158;-81
2022/11/16 03:49:11;;;;;;;16.58;10.70;;;10.50;99.90;;;;;;5067868;28;20486;-79
2022/11/16 03:51:37;;;;;;;20.70;10.80;;;10.50;99.90;;;;;;5082372;28;20039;-79
2022/11/16 03:57:28;;;;;;;16.08;10.57;;;10.50;99.90;;;;;;5088014;28;20089;-80
2022/11/16 03:59:53;;;;;;;18.05;11.43;;;10.60;99.90;;;;;;5094191;28;20043;-80
2022/11/16 04:02:19;;;;;;;16.98;10.90;;;10.40;99.90;;;;;;5069841;28;20111;-81
2022/11/16 04:24:28;;;;;;;17.50;12.23;;;10.50;99.90;;;;;;5100675;27;20048;-80
2022/11/16 04:29:43;;;;;;;14.98;10.98;;;10.40;99.90;;;;;;5117080;27;20649;-84
2022/11/16 04:37:47;;;;;;;16.60;11.88;;;10.50;99.90;;;;;;5087650;28;20653;-82
2022/11/16 04:40:16;;;;;;;17.00;11.63;;;10.50;99.90;;;;;;5086266;28;20052;-84
2022/11/16 04:42:42;;;;;;;16.90;11.73;;;10.40;99.90;;;;;;5100280;28;20043;-81
2022/11/16 04:47:52;;;;;;;15.80;11.67;;;10.50;99.90;;;;;;5107036;27;20055;-83
2022/11/16 04:50:19;;;;;;;18.60;12.02;;;10.50;99.90;;;;;;5068347;28;20294;-84
2022/11/16 04:52:45;;;;;;;19.17;12.40;;;10.40;99.90;;;;;;5065548;28;20109;-77
2022/11/16 04:55:11;;;;;;;15.43;11.65;;;10.40;99.90;;;;;;5112744;27;20044;-83
2022/11/16 04:57:37;;;;;;;14.93;11.20;;;10.40;99.90;;;;;;5081642;28;20101;-78
2022/11/16 05:00:04;;;;;;;17.05;11.35;;;10.50;99.90;;;;;;5088063;28;20048;-83
2022/11/16 05:02:29;;;;;;;21.15;12.70;;;10.40;99.90;;;;;;5114678;27;20036;-85
2022/11/16 05:04:56;;;;;;;16.70;11.38;;;10.40;99.90;;;;;;5065660;28;20046;-81
2022/11/16 05:07:21;;;;;;;18.65;11.90;;;10.40;99.90;;;;;;5067484;28;20058;-84
2022/11/16 05:09:48;;;;;;;17.15;12.25;;;10.50;99.90;;;;;;5081919;28;20048;-85
2022/11/16 05:12:15;;;;;;;19.77;12.30;;;10.50;99.90;;;;;;5067171;28;20040;-81
2022/11/16 05:14:41;;;;;;;17.38;12.30;;;10.40;99.90;;;;;;5081369;28;20044;-85
2022/11/16 05:17:07;;;;;;;19.67;11.55;;;10.50;99.90;;;;;;5064629;28;20722;-82
2022/11/16 05:22:17;;;;;;;22.05;13.10;;;10.50;99.90;;;;;;5072993;28;20067;-83
2022/11/16 05:24:43;;;;;;;17.55;12.85;;;10.40;99.90;;;;;;5087129;28;20043;-81
2022/11/16 05:27:12;;;;;;;17.98;12.50;;;10.40;99.90;;;;;;5070708;28;20431;-80
2022/11/16 05:29:39;;;;;;;17.67;12.60;;;10.40;99.90;;;;;;5090451;28;20059;-77
2022/11/16 05:32:06;;;;;;;17.33;12.30;;;10.40;99.90;;;;;;5092387;28;20040;-81
2022/11/16 05:34:32;;;;;;;20.13;13.57;;;10.40;99.90;;;;;;5091747;28;20111;-86
2022/11/16 05:36:58;;;;;;;23.17;13.15;;;10.40;99.90;;;;;;5099378;28;20056;-83
2022/11/16 05:39:24;;;;;;;17.75;12.93;;;10.40;99.90;;;;;;5045551;28;20068;-84
2022/11/16 05:41:50;;;;;;;25.42;13.75;;;10.50;99.90;;;;;;5081071;28;20052;-81
2022/11/16 05:44:16;;;;;;;21.08;13.30;;;10.40;99.90;;;;;;5111337;27;20067;-79
2022/11/16 05:46:45;;;;;;;22.08;14.02;;;10.40;99.90;;;;;;5083433;28;20428;-83
2022/11/16 05:49:12;;;;;;;19.63;13.85;;;10.40;99.90;;;;;;5062832;28;20040;-84
2022/11/16 05:51:42;;;;;;;20.75;13.93;;;10.40;99.90;;;;;;5093767;28;20032;-84
2022/11/16 05:54:26;;;;;;;20.52;13.65;;;10.40;99.90;;;;;;5066531;28;20055;-81
2022/11/16 05:56:53;;;;;;;18.73;14.05;;;10.40;99.90;;;;;;5077954;28;20044;-80
2022/11/16 05:59:21;;;;;;;20.38;13.82;;;10.40;99.90;;;;;;5059212;28;20028;-79
2022/11/16 06:01:47;;;;;;;18.55;13.77;;;10.50;99.90;;;;;;5113812;27;20044;-81
2022/11/16 06:04:13;;;;;;;19.45;13.60;;;10.50;99.90;;;;;;5080277;28;20047;-82
2022/11/16 06:06:39;;;;;;;22.67;13.93;;;10.50;99.90;;;;;;5060408;28;20044;-79
2022/11/16 06:09:06;;;;;;;23.67;14.27;;;10.40;99.90;;;;;;5080650;28;20047;-85
2022/11/16 06:11:32;;;;;;;21.17;13.73;;;10.40;99.90;;;;;;5111145;27;20055;-82
2022/11/16 06:13:59;;;;;;;23.88;14.90;;;10.50;99.90;;;;;;5059151;28;20445;-79
2022/11/16 06:16:25;;;;;;;21.98;14.57;;;10.40;99.90;;;;;;5114573;27;20100;-80
2022/11/16 06:18:51;;;;;;;21.35;14.85;;;10.50;99.90;;;;;;5111581;27;20077;-82
2022/11/16 06:21:18;;;;;;;23.23;14.25;;;10.50;99.90;;;;;;5061615;28;20040;-80
2022/11/16 06:23:44;;;;;;;21.38;14.52;;;10.40;99.90;;;;;;5061033;28;20040;-82
2022/11/16 06:26:10;;;;;;;23.33;13.73;;;10.40;99.90;;;;;;5080725;28;21127;-79
2022/11/16 06:28:36;;;;;;;20.13;14.05;;;10.50;99.90;;;;;;5060634;28;20085;-82
2022/11/16 06:31:02;;;;;;;20.75;13.63;;;10.40;99.90;;;;;;5085888;28;20055;-84
2022/11/16 06:33:28;;;;;;;22.40;14.88;;;10.40;99.90;;;;;;5078139;28;20044;-82
2022/11/16 06:35:54;;;;;;;23.15;14.43;;;10.40;99.90;;;;;;5069232;28;20044;-85
2022/11/16 06:38:22;;;;;;;20.20;14.00;;;10.50;99.90;;;;;;5065205;28;21707;-82
2022/11/16 06:40:52;;;;;;;21.98;14.10;;;10.40;99.90;;;;;;5066803;28;20044;-82
2022/11/16 06:43:18;;;;;;;23.17;14.80;;;10.60;99.90;;;;;;5059475;28;20111;-79
2022/11/16 06:45:49;;;;;;;28.00;16.92;;;10.60;99.90;;;;;;5065930;28;20042;-82
2022/11/16 06:48:16;;;;;;;23.65;15.27;;;10.50;99.90;;;;;;5086165;28;20064;-86
2022/11/16 06:50:42;;;;;;;19.02;14.57;;;10.50;99.90;;;;;;5103083;27;20432;-79
2022/11/16 06:53:07;;;;;;;26.80;14.60;;;10.60;99.90;;;;;;5068241;28;20052;-82
2022/11/16 06:55:33;;;;;;;19.38;14.93;;;10.50;99.90;;;;;;5074038;28;20048;-84
2022/11/16 06:57:59;;;;;;;22.52;14.98;;;10.50;99.90;;;;;;5084891;28;20139;-80
2022/11/16 07:00:26;;;;;;;21.00;14.88;;;10.50;99.90;;;;;;5119427;27;20482;-84
2022/11/16 07:02:52;;;;;;;18.67;14.10;;;10.50;99.90;;;;;;5090714;28;20088;-84
2022/11/16 07:05:18;;;;;;;18.15;13.70;;;10.50;99.90;;;;;;5102361;28;20498;-82
2022/11/16 07:07:44;;;;;;;15.32;12.02;;;10.60;99.90;;;;;;5104588;28;20039;-83
2022/11/16 07:10:11;;;;;;;13.88;11.18;;;10.60;99.90;;;;;;5092282;28;20043;-82
2022/11/16 07:12:37;;;;;;;14.30;10.63;;;10.50;99.90;;;;;;5092664;28;20542;-80
2022/11/16 07:15:03;;;;;;;15.05;10.70;;;10.50;99.90;;;;;;5074916;28;20162;-81
2022/11/16 07:17:29;;;;;;;18.83;11.20;;;10.50;99.90;;;;;;5126347;27;20086;-81
2022/11/16 07:19:54;;;;;;;13.32;10.93;;;10.50;99.90;;;;;;5090990;28;20032;-82
2022/11/16 07:22:20;;;;;;;16.58;11.30;;;10.50;99.90;;;;;;5070355;28;20605;-79
2022/11/16 07:24:45;;;;;;;16.13;12.30;;;10.50;99.90;;;;;;5068486;28;20043;-81
2022/11/16 07:27:11;;;;;;;16.90;12.43;;;10.60;99.90;;;;;;5067193;28;20032;-81
2022/11/16 07:29:37;;;;;;;19.95;13.05;;;10.60;99.90;;;;;;5115591;27;20142;-81
2022/11/16 07:32:03;;;;;;;22.20;13.45;;;10.50;99.90;;;;;;5069402;28;20143;-78
2022/11/16 07:34:28;;;;;;;20.27;14.10;;;10.40;99.90;;;;;;5075485;28;20130;-79
2022/11/16 07:36:54;;;;;;;19.08;13.38;;;10.50;99.90;;;;;;5102911;28;20044;-83
2022/11/16 07:39:20;;;;;;;18.17;13.73;;;10.50;99.90;;;;;;5086185;28;20056;-85
2022/11/16 07:41:49;;;;;;;20.48;13.85;;;10.60;99.90;;;;;;5086285;28;20502;-85
2022/11/16 07:44:14;;;;;;;19.05;13.57;;;10.40;99.90;;;;;;5081682;28;20040;-83
2022/11/16 07:46:40;;;;;;;16.90;12.50;;;10.50;99.90;;;;;;5089618;28;20383;-85
2022/11/16 07:49:06;;;;;;;20.45;13.07;;;10.50;99.90;;;;;;5088194;28;20036;-79
2022/11/16 07:51:32;;;;;;;19.42;13.20;;;10.50;99.90;;;;;;5074270;28;20131;-82
2022/11/16 07:53:57;;;;;;;19.48;13.45;;;10.50;99.90;;;;;;5085744;28;20200;-85
2022/11/16 07:56:24;;;;;;;18.42;11.15;;;10.50;99.90;;;;;;5068062;28;20043;-83
2022/11/16 07:58:51;;;;;;;17.75;11.75;;;10.60;99.90;;;;;;5116772;27;20060;-79
2022/11/16 08:01:17;;;;;;;14.00;11.05;;;10.40;99.90;;;;;;5073109;28;20140;-84
2022/11/16 08:03:46;;;;;;;14.55;10.85;;;10.40;99.90;;;;;;5088689;28;20439;-78
2022/11/16 08:06:13;;;;;;;17.88;11.20;;;10.40;99.90;;;;;;5071075;28;20449;-81
2022/11/16 08:08:39;;;;;;;17.00;11.35;;;10.50;99.90;;;;;;5085840;28;20104;-80
2022/11/16 08:11:08;;;;;;;17.27;11.90;;;10.50;99.90;;;;;;5099777;28;20048;-79
2022/11/16 08:13:35;;;;;;;17.77;11.98;;;10.40;99.90;;;;;;5070561;28;20079;-82
2022/11/16 08:16:03;;;;;;;18.73;13.02;;;10.50;99.90;;;;;;5064947;28;20055;-77
2022/11/16 08:18:29;;;;;;;17.38;12.50;;;10.40;99.90;;;;;;5093595;28;20061;-81
2022/11/16 08:20:57;;;;;;;20.02;13.18;;;10.40;99.90;;;;;;5110712;28;20052;-77
2022/11/16 08:23:23;;;;;;;23.23;14.80;;;10.40;99.90;;;;;;5091659;27;20044;-77
2022/11/16 08:25:49;;;;;;;25.15;15.27;;;10.40;99.90;;;;;;5088211;28;20039;-84
2022/11/16 08:28:15;;;;;;;20.08;13.88;;;10.50;99.90;;;;;;5085420;28;20040;-80
2022/11/16 08:30:41;;;;;;;19.15;13.45;;;10.40;99.90;;;;;;5116604;27;20051;-84
2022/11/16 08:33:08;;;;;;;21.98;13.88;;;10.30;99.90;;;;;;5099664;28;20348;-80
2022/11/16 08:35:35;;;;;;;22.80;14.20;;;10.40;99.90;;;;;;5083352;28;20086;-84
2022/11/16 08:38:33;;;;;;;21.80;15.55;;;10.40;99.90;;;;;;5049846;28;20459;-84
2022/11/16 08:40:58;;;;;;;23.00;14.38;;;10.50;99.90;;;;;;5082529;28;20036;-81
2022/11/16 08:43:24;;;;;;;19.42;14.27;;;10.50;99.90;;;;;;5097727;28;20063;-79
2022/11/16 08:45:52;;;;;;;23.85;15.65;;;10.50;99.90;;;;;;5115525;27;20584;-82
2022/11/16 08:48:18;;;;;;;23.75;15.60;;;10.50;99.90;;;;;;5085677;28;20126;-83
2022/11/16 08:50:44;;;;;;;19.13;14.32;;;10.40;99.90;;;;;;5066110;28;20072;-79
2022/11/16 08:53:10;;;;;;;20.40;14.60;;;10.40;99.90;;;;;;5116958;27;20128;-78
2022/11/16 08:55:36;;;;;;;21.25;14.88;;;10.40;99.90;;;;;;5065859;28;20483;-85
2022/11/16 08:58:01;;;;;;;22.45;15.35;;;10.40;99.90;;;;;;5087533;28;20134;-85
2022/11/16 09:00:27;;;;;;;21.77;14.90;;;10.50;99.90;;;;;;5067333;28;20126;-78
2022/11/16 09:02:53;;;;;;;24.17;15.25;;;10.50;99.90;;;;;;5087050;28;20040;-81
2022/11/16 09:05:19;;;;;;;25.15;15.60;;;10.50;99.90;;;;;;5097258;28;20039;-84
2022/11/16 09:07:45;;;;;;;20.67;14.40;;;10.50;99.90;;;;;;5089564;28;20143;-82
2022/11/16 09:10:29;;;;;;;20.05;14.73;;;10.50;99.90;;;;;;5066860;28;20039;-84
2022/11/16 09:12:54;;;;;;;19.27;14.63;;;10.50;99.90;;;;;;5110566;27;20041;-85
2022/11/16 09:15:21;;;;;;;20.75;14.20;;;10.60;99.90;;;;;;5096810;28;20044;-78
2022/11/16 09:17:47;;;;;;;19.65;15.10;;;10.60;99.90;;;;;;5078756;28;20066;-83
2022/11/16 09:20:12;;;;;;;22.73;15.65;;;10.60;99.90;;;;;;5089657;27;20056;-82
2022/11/16 09:22:38;;;;;;;20.77;15.20;;;10.60;99.90;;;;;;5083532;28;20044;-82
2022/11/16 09:25:04;;;;;;;23.73;15.90;;;10.80;99.90;;;;;;5087112;28;20537;-82
2022/11/16 09:27:31;;;;;;;22.27;15.75;;;10.80;99.90;;;;;;5123972;27;20451;-83
2022/11/16 09:29:57;;;;;;;22.02;15.55;;;10.80;99.90;;;;;;5085594;28;20092;-79
2022/11/16 09:32:22;;;;;;;21.50;15.35;;;10.80;99.90;;;;;;5087972;28;20537;-87
2022/11/16 09:34:48;;;;;;;19.10;14.95;;;10.80;99.90;;;;;;5074189;28;20435;-77
2022/11/16 09:37:14;;;;;;;20.38;14.15;;;10.90;99.90;;;;;;5088493;28;20178;-84
2022/11/16 09:39:41;;;;;;;26.27;16.92;;;10.90;99.90;;;;;;5086833;28;20059;-84
2022/11/16 09:42:42;;;;;;;19.95;14.40;;;10.80;99.90;;;;;;5103959;28;20171;-83
2022/11/16 09:45:13;;;;;;;17.48;13.55;;;10.90;99.90;;;;;;5015295;28;20124;-81
2022/11/16 09:47:44;;;;;;;17.98;12.63;;;11.00;99.90;;;;;;5032091;28;20049;-79
2022/11/16 09:50:25;;;;;;;17.02;12.80;;;11.00;99.90;;;;;;5014400;28;20578;-80
2022/11/16 09:52:53;;;;;;;16.58;12.43;;;11.00;99.90;;;;;;5014820;28;20053;-83
2022/11/16 09:55:24;;;;;;;18.75;11.30;;;11.00;99.90;;;;;;5031694;28;20109;-84
2022/11/16 09:57:54;;;;;;;14.13;11.13;;;10.90;99.90;;;;;;5029652;28;20041;-87
2022/11/16 10:00:24;;;;;;;16.15;11.63;;;11.10;99.90;;;;;;5014887;28;20115;-84
2022/11/16 10:03:10;;;;;;;15.13;11.15;;;11.00;99.90;;;;;;5031899;28;20453;-82
2022/11/16 10:05:44;;;;;;;18.33;12.07;;;11.00;99.90;;;;;;5031553;28;20080;-83
2022/11/16 10:08:36;;;;;;;17.02;12.65;;;11.20;99.90;;;;;;5008541;28;20049;-80
2022/11/16 10:11:08;;;;;;;15.07;11.93;;;11.40;99.90;;;;;;4959304;28;20042;-82
2022/11/16 10:13:51;;;;;;;14.30;11.82;;;11.40;99.90;;;;;;4969545;28;20113;-85
2022/11/16 10:16:25;;;;;;;16.60;11.68;;;11.30;99.90;;;;;;4956638;28;20054;-85
2022/11/16 10:19:30;;;;;;;15.38;10.85;;;11.40;99.90;;;;;;4952749;28;20397;-80
2022/11/16 10:22:17;;;;;;;13.60;10.90;;;11.40;99.90;;;;;;4985434;28;20108;-83
2022/11/16 10:25:10;;;;;;;16.73;11.35;;;11.40;99.90;;;;;;5002308;28;20154;-85
2022/11/16 10:28:12;;;;;;;12.93;10.57;;;11.50;99.90;;;;;;5012805;28;20052;-84
2022/11/16 10:30:51;;;;;;;12.20;10.40;;;11.50;99.90;;;;;;4998229;28;20125;-82
2022/11/16 10:33:21;;;;;;;13.52;10.23;;;11.40;99.90;;;;;;5001633;28;20065;-82
2022/11/16 10:35:52;;;;;;;13.60;10.73;;;11.40;99.90;;;;;;4998099;28;20057;-83
2022/11/16 10:38:29;;;;;;;15.20;11.25;;;11.50;99.90;;;;;;4983319;28;20049;-83
2022/11/16 10:41:18;;;;;;;17.45;11.85;;;11.50;99.90;;;;;;4993018;28;20575;-85
2022/11/16 10:43:44;;;;;;;24.05;12.68;;;11.60;99.90;;;;;;5008401;28;20034;-84
2022/11/16 10:46:27;;;;;;;16.90;11.95;;;11.60;99.90;;;;;;4993952;28;20065;-80
2022/11/16 10:49:10;;;;;;;21.02;12.63;;;11.60;99.90;;;;;;5064667;28;20097;-88
2022/11/16 10:51:36;;;;;;;16.98;11.82;;;11.70;99.90;;;;;;5075244;28;20113;-78
2022/11/16 10:54:13;;;;;;;22.55;13.88;;;11.70;99.90;;;;;;5124328;27;20036;-80
2022/11/16 10:56:44;;;;;;;19.80;13.95;;;11.70;99.90;;;;;;5092731;28;20078;-79
2022/11/16 10:59:14;;;;;;;24.42;13.20;;;11.90;99.90;;;;;;5108941;27;20059;-86
2022/11/16 11:01:48;;;;;;;28.98;12.05;;;11.90;99.90;;;;;;5086791;28;20052;-80
2022/11/16 11:04:28;;;;;;;20.60;11.85;;;12.00;99.90;;;;;;5074970;28;20036;-83
2022/11/16 11:07:13;;;;;;;19.65;12.32;;;12.10;99.90;;;;;;5102023;28;20456;-81
2022/11/16 11:09:42;;;;;;;;;;;12.40;99.90;;;;;;5089247;28;20589;-83
2022/11/16 11:15:06;;;;;;;20.13;11.57;;;12.30;99.90;;;;;;5088517;28;20488;-82
2022/11/16 11:17:34;;;;;;;20.33;9.93;;;12.30;99.90;;;;;;5077589;28;20348;-86
2022/11/16 11:20:22;;;;;;;18.77;10.40;;;12.20;99.90;;;;;;5071827;28;20055;-84
2022/11/16 11:23:01;;;;;;;19.50;9.50;;;12.20;99.90;;;;;;5086841;28;20479;-81
2022/11/16 11:25:31;;;;;;;14.85;8.27;;;12.20;99.90;;;;;;5117841;27;20044;-80
2022/11/16 11:28:05;;;;;;;16.00;8.68;;;12.20;99.90;;;;;;5085374;28;20126;-83
2022/11/16 11:30:32;;;;;;;14.73;8.60;;;12.20;99.90;;;;;;5089134;28;20051;-83
2022/11/16 11:32:58;;;;;;;14.68;9.40;;;12.20;99.90;;;;;;5087332;28;20552;-83
2022/11/16 11:35:30;;;;;;;14.35;8.10;;;12.20;99.90;;;;;;5087724;28;20028;-82
2022/11/16 11:38:00;;;;;;;16.05;7.65;;;12.10;99.90;;;;;;5116883;27;20058;-82
2022/11/16 11:40:31;;;;;;;12.50;7.95;;;12.10;99.90;;;;;;5099128;28;20074;-81
2022/11/16 11:43:05;;;;;;;21.85;7.43;;;12.10;99.90;;;;;;5069867;28;20036;-79
2022/11/16 11:45:50;;;;;;;14.23;6.90;;;12.10;99.90;;;;;;5084398;28;20143;-84
2022/11/16 11:48:24;;;;;;;11.07;6.90;;;12.00;99.90;;;;;;5081484;28;20401;-83
2022/11/16 11:50:57;;;;;;;17.52;7.57;;;12.00;99.90;;;;;;5113098;27;20054;-81
2022/11/16 11:53:45;;;;;;;14.98;7.22;;;11.90;99.90;;;;;;5093020;28;20381;-82
2022/11/16 11:56:13;;;;;;;15.43;5.85;;;11.90;99.90;;;;;;5073682;28;20056;-79
2022/11/16 11:58:42;;;;;;;12.38;6.35;;;12.00;99.90;;;;;;5075476;28;20390;-82
2022/11/16 12:01:29;;;;;;;13.02;6.32;;;11.80;99.90;;;;;;5075399;28;20425;-83
2022/11/16 12:04:10;;;;;;;13.68;6.80;;;11.90;99.90;;;;;;5087501;28;20040;-80
2022/11/16 12:07:07;;;;;;;15.07;7.50;;;12.10;99.90;;;;;;5098914;28;20205;-80
2022/11/16 12:09:56;;;;;;;14.13;7.82;;;12.20;99.90;;;;;;5091254;28;20032;-85
2022/11/16 12:13:07;;;;;;;14.57;7.47;;;12.30;99.90;;;;;;5091473;28;20071;-82
2022/11/16 12:15:38;;;;;;;11.60;6.72;;;12.60;99.90;;;;;;5073150;28;20095;-82
2022/11/16 12:18:28;;;;;;;11.77;5.72;;;12.70;99.90;;;;;;5090396;28;20407;-82
2022/11/16 12:21:21;;;;;;;10.70;4.65;;;12.80;99.90;;;;;;5089493;28;20483;-84
2022/11/16 12:23:50;;;;;;;11.52;4.32;;;12.80;99.90;;;;;;5058330;28;20044;-81
2022/11/16 12:26:37;;;;;;;11.18;4.30;;;13.00;99.90;;;;;;5097989;28;20044;-83
2022/11/16 12:29:22;;;;;;;9.02;3.40;;;12.90;99.90;;;;;;5069060;28;20079;-83
2022/11/16 12:32:07;;;;;;;10.18;3.13;;;12.80;99.90;;;;;;5083633;28;20155;-82
2022/11/16 12:34:58;;;;;;;12.52;3.13;;;12.70;99.90;;;;;;5118162;27;20051;-84
2022/11/16 12:37:30;;;;;;;9.02;3.10;;;12.70;99.90;;;;;;5079959;28;20060;-80
2022/11/16 12:40:08;;;;;;;13.23;2.97;;;12.70;99.90;;;;;;5117201;27;20050;-80
2022/11/16 12:42:52;;;;;;;7.05;2.92;;;12.80;99.90;;;;;;5081810;28;20083;-80
2022/11/16 12:45:31;;;;;;;7.30;2.75;;;13.00;99.90;;;;;;5103569;28;20048;-81
2022/11/16 12:48:30;;;;;;;11.55;3.00;;;13.00;99.90;;;;;;5081736;28;20040;-82
2022/11/16 12:51:22;;;;;;;8.63;2.72;;;13.10;99.90;;;;;;5066941;28;20063;-85
2022/11/16 12:54:24;;;;;;;8.68;3.00;;;13.10;99.90;;;;;;5081556;28;20095;-85
2022/11/16 12:57:37;;;;;;;10.98;3.10;;;13.00;99.90;;;;;;5096073;28;20060;-86
2022/11/16 13:00:15;;;;;;;12.48;3.10;;;12.90;99.90;;;;;;5034089;28;20055;-80
2022/11/16 13:02:55;;;;;;;11.52;3.10;;;12.70;99.90;;;;;;5051429;28;20048;-82
2022/11/16 13:05:42;;;;;;;13.00;3.17;;;12.60;99.90;;;;;;5056812;28;20041;-85
2022/11/16 13:08:34;;;;;;;7.60;3.00;;;12.70;99.90;;;;;;5064595;28;20056;-81
2022/11/16 13:11:52;;;;;;;12.30;2.72;;;12.80;99.90;;;;;;5086325;28;20056;-85
2022/11/16 13:14:35;;;;;;;13.40;2.92;;;12.80;99.90;;;;;;4990473;28;20057;-82
2022/11/16 13:17:03;;;;;;;8.45;2.35;;;12.90;99.90;;;;;;4989723;28;20118;-84
2022/11/16 13:19:29;;;;;;;13.25;2.85;;;12.90;99.90;;;;;;4993386;28;20056;-83
2022/11/16 13:22:06;;;;;;;11.13;2.72;;;13.00;99.90;;;;;;4993956;28;20077;-84
2022/11/16 13:24:39;;;;;;;8.60;2.22;;;12.90;99.90;;;;;;4994602;28;20046;-80
2022/11/16 13:27:28;;;;;;;16.02;3.03;;;12.80;99.90;;;;;;5006633;28;20085;-85
2022/11/16 13:30:04;;;;;;;10.43;2.83;;;12.70;99.90;;;;;;5007688;28;20048;-82
2022/11/16 13:32:42;;;;;;;14.88;3.78;;;12.70;99.90;;;;;;4977312;28;20054;-82
2022/11/16 13:35:14;;;;;;;12.02;2.97;;;12.50;99.90;;;;;;4977223;28;20050;-83
2022/11/16 13:37:44;;;;;;;14.60;3.20;;;12.50;99.90;;;;;;4989296;28;20187;-86
2022/11/16 13:40:28;;;;;;;12.63;2.78;;;12.50;99.90;;;;;;5012473;28;20042;-85
2022/11/16 13:43:08;;;;;;;9.60;2.13;;;12.50;99.90;;;;;;4997118;28;20045;-81
2022/11/16 13:45:44;;;;;;;11.82;2.53;;;12.40;99.90;;;;;;4977398;28;20046;-83